Terminal Aerodrome Forecast
Issued by NWS

Home | Current Version | Previous Version | Text Only | Print | Product List | Glossary On
Versions: 1 2 3 4 5 6 7 8 9 10 11 12 13 14 15 16 17
993
FTUS43 KMQT 131736
TAFSAW
TAF
KSAW 131736Z 1318/1418 33012G18KT P6SM SCT025 BKN035
      TEMPO 1318/1321 BKN025
     FM132100 33008KT P6SM SCT035
     FM140000 00000KT P6SM SKC
     FM141300 19006KT P6SM SCT200=

USA.gov is the U.S. government's official web portal to all federal, state and local government web resources and services.